KLEX/LEX METAR and TAF weather

Enter ICAO airport designator
Station Type Date Time Source
KLEX METAR 2021/05/06 23:54 UTC NOAA

KLEX 062354Z 00000KT 10SM BKN060 OVC080 15/06 A2999 RMK AO2 SLP154 T01500056 10178 20144 56010


Station Type Date Time Source
KLEX Decoded METAR 2021/05/06 23:54 UTC NOAA

LEXINGTON BLUE GRASS AIRPORT, KY, United States (KLEX) 38-02N 084-36W 300M
May 06, 2021 - 07:54 PM EDT / 2021.05.06 2354 UTC
Wind: Calm:0
Visibility: 10 mile(s):0
Sky conditions: overcast
Temperature: 59.0 F (15.0 C)
Dew Point: 42.1 F (5.6 C)
Relative Humidity: 53%
Pressure (altimeter): 29.99 in. Hg (1015 hPa)
Pressure tendency: 0.03 inches (1.0 hPa) lower than three hours ago
ob: KLEX 062354Z 00000KT 10SM BKN060 OVC080 15/06 A2999 RMK AO2 SLP154 T01500056 10178 20144 56010
cycle: 0

Station Type Date Time Source
KLEX TAF 2021/05/06 18:30 UTC NOAA

TAF KLEX 061728Z 0618/0718 22008KT P6SM SCT150
FM070000 30010KT P6SM VCSH BKN050
FM070500 29008KT P6SM VCSH OVC015
FM071000 31010KT P6SM SCT090
FM071400 30011G20KT P6SM FEW250

Example: see airport list